createdAt,value
2022-10-18T00:01:32.417Z,13.13
2022-10-18T00:03:59.800Z,14.27
2022-10-18T00:06:27.321Z,13.98
2022-10-18T00:08:56.128Z,18.27
2022-10-18T00:11:23.529Z,12.40
2022-10-18T00:13:50.933Z,13.85
2022-10-18T00:16:19.475Z,15.43
2022-10-18T00:18:47.928Z,13.30
2022-10-18T00:21:16.789Z,12.30
2022-10-18T00:23:44.768Z,11.27
2022-10-18T00:26:14.326Z,12.48
2022-10-18T00:28:41.978Z,19.10
2022-10-18T00:31:13.601Z,16.15
2022-10-18T00:33:41.144Z,10.55
2022-10-18T00:36:09.076Z,15.15
2022-10-18T00:38:36.897Z,12.27
2022-10-18T00:41:04.871Z,13.35
2022-10-18T00:43:33.672Z,13.45
2022-10-18T00:46:01.021Z,13.90
2022-10-18T00:48:28.368Z,8.40
2022-10-18T00:50:55.734Z,9.75
2022-10-18T00:53:23.829Z,6.40
2022-10-18T00:55:51.758Z,6.72
2022-10-18T00:58:20.195Z,6.18
2022-10-18T01:00:49.029Z,11.98
2022-10-18T01:03:16.405Z,8.65
2022-10-18T01:05:45.536Z,9.48
2022-10-18T01:08:25.875Z,8.85
2022-10-18T01:10:58.059Z,8.63
2022-10-18T01:13:35.982Z,8.95
2022-10-18T01:16:10.211Z,10.25
2022-10-18T01:18:42.713Z,10.18
2022-10-18T01:21:14.539Z,11.38
2022-10-18T01:24:00.553Z,14.23
2022-10-18T01:26:37.551Z,8.27
2022-10-18T01:29:11.212Z,10.23
2022-10-18T01:31:42.849Z,11.98
2022-10-18T01:34:11.153Z,14.32
2022-10-18T01:36:40.425Z,14.60
2022-10-18T01:39:09.753Z,13.85
2022-10-18T01:41:39.583Z,11.43
2022-10-18T01:44:08.902Z,12.13
2022-10-18T01:46:37.216Z,14.27
2022-10-18T01:49:06.008Z,14.88
2022-10-18T01:51:34.100Z,17.23
2022-10-18T01:54:01.565Z,17.13
2022-10-18T01:56:32.269Z,14.82
2022-10-18T01:59:04.144Z,16.38
2022-10-18T02:01:34.388Z,19.30
2022-10-18T02:04:10.441Z,16.08
2022-10-18T02:06:43.836Z,15.13
2022-10-18T02:09:13.445Z,19.30
2022-10-18T02:11:41.887Z,18.55
2022-10-18T02:14:10.351Z,14.23
2022-10-18T02:16:39.931Z,15.32
2022-10-18T02:19:10.556Z,17.83
2022-10-18T02:21:39.539Z,13.65
2022-10-18T02:24:07.826Z,14.43
2022-10-18T02:26:35.223Z,17.90
2022-10-18T02:29:02.703Z,13.95
2022-10-18T02:31:31.985Z,15.40
2022-10-18T02:34:01.622Z,19.45
2022-10-18T02:36:32.507Z,11.73
2022-10-18T02:39:03.200Z,15.63
2022-10-18T02:41:31.590Z,17.27
2022-10-18T02:43:58.991Z,20.67
2022-10-18T02:48:54.824Z,15.97
2022-10-18T02:51:22.213Z,16.60
2022-10-18T02:53:49.591Z,16.40
2022-10-18T02:56:18.336Z,15.75
2022-10-18T02:58:45.707Z,13.35
2022-10-18T03:01:13.146Z,16.75
2022-10-18T03:03:40.592Z,16.90
2022-10-18T03:06:07.962Z,16.33
2022-10-18T03:08:36.579Z,12.50
2022-10-18T03:11:03.953Z,11.80
2022-10-18T03:13:33.846Z,12.52
2022-10-18T03:16:01.526Z,13.85
2022-10-18T03:18:28.916Z,11.55
2022-10-18T03:20:56.330Z,14.50
2022-10-18T03:23:23.711Z,11.05
2022-10-18T03:25:51.087Z,11.77
2022-10-18T03:28:18.508Z,10.30
2022-10-18T03:30:47.279Z,14.60
2022-10-18T03:33:14.657Z,12.88
2022-10-18T03:35:42.106Z,11.90
2022-10-18T03:38:09.617Z,11.52
2022-10-18T03:40:37.056Z,10.30
2022-10-18T03:43:04.492Z,10.07
2022-10-18T03:45:31.855Z,8.43
2022-10-18T03:48:00.580Z,10.13
2022-10-18T03:50:27.925Z,7.10
2022-10-18T03:52:55.545Z,9.27
2022-10-18T03:55:22.894Z,11.50
2022-10-18T03:57:51.144Z,6.63
2022-10-18T04:00:18.584Z,8.43
2022-10-18T04:02:46.348Z,7.57
2022-10-18T04:05:15.088Z,9.02
2022-10-18T04:07:42.495Z,7.47
2022-10-18T04:10:10.036Z,11.98
2022-10-18T04:12:37.408Z,9.18
2022-10-18T04:15:05.007Z,7.57
2022-10-18T04:17:32.617Z,6.10
2022-10-18T04:20:00.197Z,7.80
2022-10-18T04:22:28.927Z,9.27
2022-10-18T04:24:56.819Z,5.47
2022-10-18T04:27:24.394Z,5.88
2022-10-18T04:29:51.829Z,6.55
2022-10-18T04:32:19.250Z,8.95
2022-10-18T04:34:46.627Z,6.97
2022-10-18T04:37:14.010Z,8.57
2022-10-18T04:39:49.769Z,6.68
2022-10-18T04:42:20.061Z,6.85
2022-10-18T04:44:47.501Z,6.55
2022-10-18T04:47:14.909Z,6.63
2022-10-18T04:49:42.279Z,8.48
2022-10-18T04:52:09.900Z,6.43
2022-10-18T04:54:37.566Z,7.13
2022-10-18T04:57:06.384Z,8.02
2022-10-18T04:59:33.776Z,8.63
2022-10-18T05:02:01.239Z,7.47
2022-10-18T05:04:28.610Z,11.55
2022-10-18T05:06:55.969Z,9.73
2022-10-18T05:09:24.684Z,11.43
2022-10-18T05:11:52.034Z,9.77
2022-10-18T05:14:20.837Z,13.82
2022-10-18T05:16:48.165Z,10.43
2022-10-18T05:19:15.546Z,9.00
2022-10-18T05:21:42.892Z,8.80
2022-10-18T05:24:11.246Z,10.70
2022-10-18T05:26:38.611Z,10.85
2022-10-18T05:29:06.062Z,9.27
2022-10-18T05:31:35.010Z,9.00
2022-10-18T05:34:02.569Z,8.25
2022-10-18T05:36:29.931Z,9.23
2022-10-18T05:39:00.906Z,7.18
2022-10-18T05:41:31.478Z,6.00
2022-10-18T05:43:58.868Z,9.75
2022-10-18T05:46:26.290Z,11.32
2022-10-18T05:48:55.025Z,9.00
2022-10-18T05:51:22.404Z,8.90
2022-10-18T05:53:49.752Z,9.15
2022-10-18T05:56:17.178Z,9.88
2022-10-18T05:58:44.511Z,8.23
2022-10-18T06:01:11.860Z,6.57
2022-10-18T06:03:39.298Z,6.90
2022-10-18T06:06:09.486Z,7.80
2022-10-18T06:08:37.368Z,6.40
2022-10-18T06:11:07.300Z,9.55
2022-10-18T06:13:34.676Z,12.57
2022-10-18T06:16:02.017Z,9.05
2022-10-18T06:18:29.763Z,7.78
2022-10-18T06:20:57.626Z,9.10
2022-10-18T06:23:26.527Z,9.35
2022-10-18T06:25:53.869Z,7.72
2022-10-18T06:28:21.270Z,10.35
2022-10-18T06:30:48.614Z,9.97
2022-10-18T06:33:16.037Z,9.73
2022-10-18T06:35:43.375Z,7.22
2022-10-18T06:38:10.726Z,8.80
2022-10-18T06:40:39.465Z,10.25
2022-10-18T06:43:20.141Z,10.10
2022-10-18T06:45:48.380Z,18.83
2022-10-18T06:48:15.890Z,12.05
2022-10-18T06:50:43.268Z,15.27
2022-10-18T06:53:10.644Z,14.05
2022-10-18T06:55:39.304Z,13.23
2022-10-18T06:58:06.691Z,13.60
2022-10-18T07:00:34.081Z,11.48
2022-10-18T07:03:01.417Z,9.75
2022-10-18T07:05:28.877Z,11.52
2022-10-18T07:07:56.548Z,8.90
2022-10-18T07:10:24.410Z,10.13
2022-10-18T07:12:59.247Z,9.88
2022-10-18T07:15:38.386Z,7.88
2022-10-18T07:18:05.981Z,11.20
2022-10-18T07:20:33.334Z,8.55
2022-10-18T07:23:00.689Z,10.43
2022-10-18T07:25:29.923Z,9.85
2022-10-18T07:27:59.395Z,11.55
2022-10-18T07:30:26.765Z,16.35
2022-10-18T07:32:54.123Z,14.70
2022-10-18T07:35:21.512Z,11.10
2022-10-18T07:37:48.885Z,12.75
2022-10-18T07:40:16.422Z,12.07
2022-10-18T07:42:43.772Z,11.32
2022-10-18T07:45:13.647Z,11.25
2022-10-18T07:47:41.594Z,11.85
2022-10-18T07:50:09.534Z,12.02
2022-10-18T07:52:36.931Z,12.35
2022-10-18T07:55:04.520Z,13.43
2022-10-18T07:57:32.048Z,19.50
2022-10-18T07:59:59.635Z,16.83
2022-10-18T08:02:28.331Z,14.98
2022-10-18T08:04:55.699Z,10.13
2022-10-18T08:07:23.093Z,11.80
2022-10-18T08:09:50.456Z,15.20
2022-10-18T08:12:17.839Z,15.25
2022-10-18T08:14:45.189Z,11.10
2022-10-18T08:17:12.565Z,13.93
2022-10-18T08:19:52.716Z,13.30
2022-10-18T08:22:28.581Z,12.82
2022-10-18T08:24:55.980Z,12.75
2022-10-18T08:27:24.845Z,13.02
2022-10-18T08:29:52.283Z,13.97
2022-10-18T08:32:19.753Z,12.18
2022-10-18T08:34:48.500Z,9.73
2022-10-18T08:37:16.188Z,10.18
2022-10-18T08:39:43.537Z,11.40
2022-10-18T08:42:16.439Z,11.18
2022-10-18T08:44:45.653Z,10.40
2022-10-18T08:47:15.839Z,12.90
2022-10-18T08:49:47.133Z,10.60
2022-10-18T08:52:17.884Z,9.15
2022-10-18T08:54:50.492Z,9.18
2022-10-18T08:57:18.698Z,8.70
2022-10-18T08:59:46.097Z,8.75
2022-10-18T09:02:17.865Z,9.90
2022-10-18T09:04:49.881Z,8.75
2022-10-18T09:07:39.200Z,10.70
2022-10-18T09:10:09.826Z,10.20
2022-10-18T09:12:47.050Z,7.90
2022-10-18T09:15:16.737Z,10.07
2022-10-18T09:17:57.415Z,6.28
2022-10-18T09:20:25.541Z,8.35
2022-10-18T09:22:55.939Z,6.50
2022-10-18T09:25:24.580Z,8.68
2022-10-18T09:27:53.262Z,4.57
2022-10-18T09:30:27.579Z,6.43
2022-10-18T09:32:58.245Z,5.35
2022-10-18T09:35:26.689Z,7.17
2022-10-18T09:37:59.491Z,7.82
2022-10-18T09:40:27.807Z,4.85
2022-10-18T09:42:59.264Z,6.10
2022-10-18T09:45:28.758Z,5.22
2022-10-18T09:48:02.067Z,5.77
2022-10-18T09:50:33.257Z,7.07
2022-10-18T09:53:05.227Z,6.65
2022-10-18T09:55:35.000Z,8.23
2022-10-18T09:58:03.671Z,6.03
2022-10-18T10:00:34.134Z,4.97
2022-10-18T10:03:02.226Z,6.57
2022-10-18T10:05:29.695Z,3.63
2022-10-18T10:07:59.568Z,7.40
2022-10-18T10:10:29.801Z,6.53
2022-10-18T10:13:04.281Z,7.17
2022-10-18T10:15:35.482Z,6.30
2022-10-18T10:18:06.478Z,5.47
2022-10-18T10:20:36.597Z,5.87
2022-10-18T10:23:08.386Z,5.97
2022-10-18T10:25:38.592Z,7.23
2022-10-18T10:28:07.780Z,7.75
2022-10-18T10:30:35.869Z,7.85
2022-10-18T10:33:04.006Z,7.53
2022-10-18T10:35:52.710Z,8.10
2022-10-18T10:38:24.818Z,4.97
2022-10-18T10:40:54.181Z,5.93
2022-10-18T10:43:37.000Z,5.97
2022-10-18T10:46:08.027Z,6.90
2022-10-18T10:48:40.196Z,7.18
2022-10-18T10:51:09.053Z,7.85
2022-10-18T10:53:39.110Z,6.10
2022-10-18T10:56:15.836Z,5.95
2022-10-18T10:58:43.475Z,6.40
2022-10-18T11:01:25.146Z,6.30
2022-10-18T11:03:53.456Z,5.88
2022-10-18T11:06:38.058Z,6.17
2022-10-18T11:09:07.417Z,5.38
2022-10-18T11:11:40.137Z,6.10
2022-10-18T11:14:25.149Z,6.63
2022-10-18T11:16:57.163Z,4.22
2022-10-18T11:19:30.760Z,5.93
2022-10-18T11:21:58.359Z,4.57
2022-10-18T11:24:25.841Z,8.02
2022-10-18T11:26:55.867Z,7.30
2022-10-18T11:29:31.381Z,4.80
2022-10-18T11:32:03.921Z,9.05
2022-10-18T11:34:38.694Z,7.07
2022-10-18T11:37:27.050Z,7.53
2022-10-18T11:40:01.973Z,6.00
2022-10-18T11:42:39.151Z,5.55
2022-10-18T11:45:12.244Z,4.95
2022-10-18T11:47:41.803Z,4.72
2022-10-18T11:50:13.637Z,6.22
2022-10-18T11:52:45.144Z,4.75
2022-10-18T11:55:17.511Z,4.40
2022-10-18T11:57:51.157Z,7.47
2022-10-18T12:00:29.812Z,8.30
2022-10-18T12:03:07.970Z,8.07
2022-10-18T12:05:36.692Z,5.80
2022-10-18T12:08:07.465Z,6.88
2022-10-18T12:10:53.091Z,3.55
2022-10-18T12:13:30.435Z,4.60
2022-10-18T12:15:57.884Z,7.57
2022-10-18T12:18:26.368Z,5.03
2022-10-18T12:20:54.793Z,7.63
2022-10-18T12:23:27.107Z,4.35
2022-10-18T12:25:56.365Z,6.80
2022-10-18T12:28:34.737Z,5.93
2022-10-18T12:31:07.567Z,5.35
2022-10-18T12:33:36.896Z,5.18
2022-10-18T12:36:08.758Z,6.07
2022-10-18T12:38:36.888Z,5.53
2022-10-18T12:41:17.723Z,5.13
2022-10-18T12:43:51.724Z,4.60
2022-10-18T12:46:19.190Z,4.87
2022-10-18T12:49:04.260Z,5.50
2022-10-18T12:51:31.699Z,5.90
2022-10-18T12:54:10.585Z,8.05
2022-10-18T12:56:41.796Z,5.72
2022-10-18T12:59:28.222Z,4.25
2022-10-18T13:02:21.055Z,4.85
2022-10-18T13:04:48.614Z,4.82
2022-10-18T13:07:19.733Z,6.30
2022-10-18T13:10:02.002Z,6.40
2022-10-18T13:12:46.247Z,6.03
2022-10-18T13:15:26.250Z,5.87
2022-10-18T13:17:58.413Z,3.67
2022-10-18T13:20:31.792Z,5.18
2022-10-18T13:23:05.609Z,5.30
2022-10-18T13:25:37.125Z,4.75
2022-10-18T13:28:15.003Z,5.32
2022-10-18T13:30:49.418Z,5.82
2022-10-18T13:33:25.016Z,5.28
2022-10-18T13:35:55.165Z,6.32
2022-10-18T13:38:33.779Z,6.57
2022-10-18T13:41:02.337Z,3.65
2022-10-18T13:43:52.203Z,5.63
2022-10-18T13:46:21.292Z,6.28
2022-10-18T13:48:49.260Z,4.30
2022-10-18T13:51:35.293Z,6.03
2022-10-18T13:54:06.321Z,5.67
2022-10-18T13:56:40.714Z,4.68
2022-10-18T13:59:21.694Z,5.00
2022-10-18T14:01:56.684Z,6.53
2022-10-18T14:04:39.291Z,5.85
2022-10-18T14:07:07.452Z,5.63
2022-10-18T14:09:44.190Z,5.90
2022-10-18T14:12:15.893Z,5.38
2022-10-18T14:14:44.406Z,6.67
2022-10-18T14:17:20.095Z,5.03
2022-10-18T14:19:50.031Z,4.20
2022-10-18T14:22:18.928Z,4.57
2022-10-18T14:24:48.062Z,7.13
2022-10-18T14:27:19.162Z,3.72
2022-10-18T14:29:47.047Z,5.65
2022-10-18T14:32:23.235Z,5.77
2022-10-18T14:34:51.339Z,5.82
2022-10-18T14:37:22.502Z,6.00
2022-10-18T14:39:49.931Z,5.00
2022-10-18T14:42:21.136Z,4.03
2022-10-18T14:44:53.008Z,4.47
2022-10-18T14:47:25.357Z,6.20
2022-10-18T14:49:54.318Z,3.95
2022-10-18T14:52:26.325Z,6.00
2022-10-18T14:54:55.308Z,5.93
2022-10-18T14:57:24.426Z,5.40
2022-10-18T14:59:55.607Z,5.18
2022-10-18T15:02:25.487Z,5.13
2022-10-18T15:04:57.152Z,5.80
2022-10-18T15:07:25.249Z,6.25
2022-10-18T15:09:52.986Z,3.22
2022-10-18T15:12:20.491Z,6.82
2022-10-18T15:19:54.373Z,6.22
2022-10-18T15:22:32.331Z,4.22
2022-10-18T15:25:12.489Z,5.20
2022-10-18T15:30:20.431Z,10.40
2022-10-18T15:32:49.111Z,5.53
2022-10-18T15:35:25.001Z,4.80
2022-10-18T15:37:53.491Z,8.48
2022-10-18T15:40:31.457Z,11.00
2022-10-18T15:42:59.878Z,7.72
2022-10-18T15:45:31.791Z,6.72
2022-10-18T15:48:04.053Z,6.38
2022-10-18T15:50:40.976Z,6.25
2022-10-18T15:53:32.398Z,6.75
2022-10-18T15:56:01.646Z,8.35
2022-10-18T15:58:29.905Z,5.97
2022-10-18T16:00:58.617Z,10.02
2022-10-18T16:03:26.140Z,5.85
2022-10-18T16:05:59.081Z,4.70
2022-10-18T16:08:28.725Z,5.45
2022-10-18T16:13:23.305Z,10.15
2022-10-18T16:15:50.736Z,5.47
2022-10-18T16:18:19.310Z,5.30
2022-10-18T16:20:47.067Z,6.97
2022-10-18T16:23:17.376Z,4.32
2022-10-18T16:25:44.802Z,5.93
2022-10-18T16:28:14.205Z,2.80
2022-10-18T16:30:42.459Z,4.13
2022-10-18T16:33:09.864Z,5.80
2022-10-18T16:35:37.320Z,4.07
2022-10-18T16:38:04.720Z,7.40
2022-10-18T16:40:35.438Z,5.82
2022-10-18T16:43:04.957Z,6.25
2022-10-18T16:45:32.432Z,4.88
2022-10-18T16:47:59.800Z,8.27
2022-10-18T16:50:27.188Z,5.28
2022-10-18T16:52:54.580Z,6.18
2022-10-18T16:55:24.814Z,8.57
2022-10-18T16:57:53.630Z,5.70
2022-10-18T17:00:21.785Z,6.27
2022-10-18T17:02:49.658Z,4.55
2022-10-18T17:05:17.449Z,5.43
2022-10-18T17:07:45.257Z,3.72
2022-10-18T17:10:13.371Z,5.65
2022-10-18T17:12:41.043Z,5.22
2022-10-18T17:15:10.370Z,5.60
2022-10-18T17:17:38.125Z,6.07
2022-10-18T17:20:06.300Z,5.40
2022-10-18T17:22:33.874Z,3.33
2022-10-18T17:25:01.259Z,3.90
2022-10-18T17:27:28.618Z,5.72
2022-10-18T17:29:57.474Z,5.43
2022-10-18T17:32:26.231Z,4.17
2022-10-18T17:34:53.609Z,8.02
2022-10-18T17:37:20.978Z,4.20
2022-10-18T17:39:48.501Z,6.13
2022-10-18T17:42:15.840Z,5.60
2022-10-18T17:44:44.040Z,3.05
2022-10-18T17:47:11.421Z,6.28
2022-10-18T17:49:40.158Z,3.83
2022-10-18T17:52:07.573Z,6.80
2022-10-18T17:54:34.939Z,2.50
2022-10-18T17:57:02.317Z,2.63
2022-10-18T17:59:29.856Z,5.55
2022-10-18T18:01:57.221Z,3.58
2022-10-18T18:04:25.640Z,6.38
2022-10-18T18:06:54.455Z,3.88
2022-10-18T18:09:21.969Z,4.70
2022-10-18T18:11:49.612Z,2.45
2022-10-18T18:14:17.307Z,3.63
2022-10-18T18:16:45.655Z,4.82
2022-10-18T18:19:13.683Z,6.40
2022-10-18T18:21:41.365Z,6.18
2022-10-18T18:24:10.772Z,4.97
2022-10-18T18:26:39.567Z,5.50
2022-10-18T18:29:07.201Z,4.77
2022-10-18T18:31:38.790Z,4.40
2022-10-18T18:34:09.873Z,4.25
2022-10-18T18:36:37.260Z,4.38
2022-10-18T18:39:05.629Z,5.53
2022-10-18T18:41:34.441Z,3.90
2022-10-18T18:44:03.732Z,3.90
2022-10-18T18:46:32.967Z,4.35
2022-10-18T18:49:00.528Z,4.68
2022-10-18T18:51:27.972Z,6.03
2022-10-18T18:53:55.782Z,4.88
2022-10-18T18:56:23.859Z,4.45
2022-10-18T18:58:52.855Z,5.75
2022-10-18T19:01:20.917Z,5.32
2022-10-18T19:03:49.012Z,2.05
2022-10-18T19:06:17.762Z,3.70
2022-10-18T19:08:45.862Z,2.40
2022-10-18T19:11:14.586Z,1.45
2022-10-18T19:13:42.018Z,1.45
2022-10-18T19:16:17.880Z,4.93
2022-10-18T19:18:50.154Z,4.07
2022-10-18T19:21:17.502Z,3.42
2022-10-18T19:23:44.892Z,3.63
2022-10-18T19:26:12.291Z,5.00
2022-10-18T19:28:39.814Z,2.75
2022-10-18T19:31:07.580Z,3.17
2022-10-18T19:33:48.451Z,4.32
2022-10-18T19:36:23.984Z,2.40
2022-10-18T19:38:51.332Z,2.80
2022-10-18T19:41:18.748Z,2.08
2022-10-18T19:43:46.231Z,4.63
2022-10-18T19:46:13.788Z,3.75
2022-10-18T19:48:42.553Z,3.40
2022-10-18T19:51:10.390Z,6.95
2022-10-18T19:53:38.372Z,4.18
2022-10-18T19:56:06.357Z,6.15
2022-10-18T19:58:33.874Z,3.42
2022-10-18T20:01:02.289Z,4.68
2022-10-18T20:03:31.065Z,4.53
2022-10-18T20:06:00.500Z,3.60
2022-10-18T20:08:28.533Z,3.28
2022-10-18T20:10:57.854Z,3.88
2022-10-18T20:13:25.223Z,6.50
2022-10-18T20:15:52.864Z,3.45
2022-10-18T20:18:20.613Z,4.65
2022-10-18T20:20:48.583Z,4.00
2022-10-18T20:23:17.648Z,3.63
2022-10-18T20:25:55.534Z,7.30
2022-10-18T20:28:24.185Z,3.25
2022-10-18T20:30:59.687Z,5.35
2022-10-18T20:33:27.085Z,3.95
2022-10-18T20:35:54.549Z,3.58
2022-10-18T20:38:23.315Z,2.92
2022-10-18T20:40:50.678Z,4.68
2022-10-18T20:43:18.073Z,3.70
2022-10-18T20:45:45.478Z,3.38
2022-10-18T20:48:12.874Z,2.95
2022-10-18T20:50:43.434Z,3.03
2022-10-18T20:53:10.796Z,2.70
2022-10-18T20:55:39.536Z,2.53
2022-10-18T20:58:07.428Z,3.65
2022-10-18T21:00:34.911Z,5.20
2022-10-18T21:03:02.360Z,1.33
2022-10-18T21:05:29.911Z,3.30
2022-10-18T21:07:57.446Z,2.13
2022-10-18T21:10:25.225Z,3.80
2022-10-18T21:12:53.934Z,2.90
2022-10-18T21:15:21.305Z,1.65
2022-10-18T21:17:50.745Z,4.35
2022-10-18T21:20:18.211Z,2.83
2022-10-18T21:22:45.670Z,5.25
2022-10-18T21:25:13.040Z,1.50
2022-10-18T21:27:40.587Z,2.58
2022-10-18T21:30:10.072Z,4.47
2022-10-18T21:32:37.489Z,2.80
2022-10-18T21:35:05.250Z,6.82
2022-10-18T21:37:32.712Z,5.05
2022-10-18T21:40:00.170Z,2.60
2022-10-18T21:42:27.561Z,3.42
2022-10-18T21:44:54.945Z,3.20
2022-10-18T21:47:23.802Z,3.58
2022-10-18T21:49:51.281Z,2.93
2022-10-18T21:52:18.701Z,2.45
2022-10-18T21:54:46.095Z,2.17
2022-10-18T21:57:13.516Z,3.35
2022-10-18T21:59:41.036Z,3.28
2022-10-18T22:02:08.430Z,4.70
2022-10-18T22:04:37.202Z,1.67
2022-10-18T22:07:05.179Z,3.40
2022-10-18T22:09:32.704Z,2.83
2022-10-18T22:12:00.115Z,1.77
2022-10-18T22:14:27.518Z,3.28
2022-10-18T22:16:54.882Z,2.30
2022-10-18T22:19:22.289Z,3.55
2022-10-18T22:21:51.017Z,1.45
2022-10-18T22:24:18.533Z,3.22
2022-10-18T22:26:46.275Z,2.22
2022-10-18T22:29:14.554Z,5.03
2022-10-18T22:31:42.725Z,3.15
2022-10-18T22:34:11.808Z,4.07
2022-10-18T22:36:39.200Z,2.00
2022-10-18T22:39:08.519Z,2.83
2022-10-18T22:41:36.153Z,3.22
2022-10-18T22:44:04.092Z,2.55
2022-10-18T22:46:31.921Z,2.65
2022-10-18T22:48:59.573Z,2.05
2022-10-18T22:51:27.235Z,2.22
2022-10-18T22:53:54.651Z,3.15
2022-10-18T22:56:23.938Z,3.33
2022-10-18T22:58:51.433Z,2.13
2022-10-18T23:01:21.054Z,3.05
2022-10-18T23:03:52.682Z,4.35
2022-10-18T23:06:21.772Z,1.55
2022-10-18T23:08:49.462Z,3.65
2022-10-18T23:11:17.135Z,2.97
2022-10-18T23:13:46.056Z,1.15
2022-10-18T23:16:13.530Z,4.60
2022-10-18T23:18:40.936Z,8.05
2022-10-18T23:21:09.505Z,4.05
2022-10-18T23:23:37.973Z,3.05
2022-10-18T23:26:05.945Z,4.47
2022-10-18T23:28:36.668Z,1.58
2022-10-18T23:31:09.352Z,5.32
2022-10-18T23:33:36.873Z,2.38
2022-10-18T23:36:04.386Z,4.85
2022-10-18T23:38:31.803Z,2.00
2022-10-18T23:40:59.283Z,1.35
2022-10-18T23:43:26.736Z,2.78
2022-10-18T23:45:54.387Z,2.95
2022-10-18T23:48:23.068Z,2.50
2022-10-18T23:50:50.491Z,2.90
2022-10-18T23:53:19.485Z,2.50
2022-10-18T23:55:50.714Z,2.30
2022-10-18T23:58:18.056Z,2.20
